sensor_id;sensor_type;location;lat;lon;timestamp;P1;durP1;ratioP1;P2;durP2;ratioP2
68176;SDS011;56478;50.982;7.032;2023-03-01T00:01:24;7.35;;;5.80;;
68176;SDS011;56478;50.982;7.032;2023-03-01T00:03:52;10.85;;;5.78;;
68176;SDS011;56478;50.982;7.032;2023-03-01T00:06:19;9.05;;;6.18;;
68176;SDS011;56478;50.982;7.032;2023-03-01T00:08:45;10.82;;;6.85;;
68176;SDS011;56478;50.982;7.032;2023-03-01T00:11:19;11.18;;;6.95;;
68176;SDS011;56478;50.982;7.032;2023-03-01T00:13:49;11.48;;;6.88;;
68176;SDS011;56478;50.982;7.032;2023-03-01T00:16:23;12.10;;;6.47;;
68176;SDS011;56478;50.982;7.032;2023-03-01T00:18:51;9.45;;;6.30;;
68176;SDS011;56478;50.982;7.032;2023-03-01T00:21:16;9.20;;;5.93;;
68176;SDS011;56478;50.982;7.032;2023-03-01T00:23:43;11.95;;;6.38;;
68176;SDS011;56478;50.982;7.032;2023-03-01T00:26:10;11.82;;;6.20;;
68176;SDS011;56478;50.982;7.032;2023-03-01T00:28:37;10.57;;;5.97;;
68176;SDS011;56478;50.982;7.032;2023-03-01T00:31:04;11.35;;;5.93;;
68176;SDS011;56478;50.982;7.032;2023-03-01T00:33:30;9.07;;;5.38;;
68176;SDS011;56478;50.982;7.032;2023-03-01T00:35:57;9.43;;;5.68;;
68176;SDS011;56478;50.982;7.032;2023-03-01T00:38:23;8.07;;;5.53;;
68176;SDS011;56478;50.982;7.032;2023-03-01T00:40:49;8.10;;;4.95;;
68176;SDS011;56478;50.982;7.032;2023-03-01T00:43:14;11.13;;;5.63;;
68176;SDS011;56478;50.982;7.032;2023-03-01T00:45:40;9.40;;;5.85;;
68176;SDS011;56478;50.982;7.032;2023-03-01T00:48:06;8.20;;;5.20;;
68176;SDS011;56478;50.982;7.032;2023-03-01T00:50:31;7.93;;;5.50;;
68176;SDS011;56478;50.982;7.032;2023-03-01T00:52:57;7.07;;;5.32;;
68176;SDS011;56478;50.982;7.032;2023-03-01T00:55:23;7.93;;;5.28;;
68176;SDS011;56478;50.982;7.032;2023-03-01T00:57:49;7.53;;;5.28;;
68176;SDS011;56478;50.982;7.032;2023-03-01T01:00:15;7.15;;;5.13;;
68176;SDS011;56478;50.982;7.032;2023-03-01T01:02:44;5.32;;;4.75;;
68176;SDS011;56478;50.982;7.032;2023-03-01T01:05:09;4.90;;;4.40;;
68176;SDS011;56478;50.982;7.032;2023-03-01T01:07:35;6.82;;;5.10;;
68176;SDS011;56478;50.982;7.032;2023-03-01T01:10:01;11.25;;;5.22;;
68176;SDS011;56478;50.982;7.032;2023-03-01T01:12:26;7.53;;;5.38;;
68176;SDS011;56478;50.982;7.032;2023-03-01T01:14:52;9.18;;;5.25;;
68176;SDS011;56478;50.982;7.032;2023-03-01T01:17:18;9.20;;;5.03;;
68176;SDS011;56478;50.982;7.032;2023-03-01T01:19:43;7.40;;;5.00;;
68176;SDS011;56478;50.982;7.032;2023-03-01T01:22:09;5.32;;;4.82;;
68176;SDS011;56478;50.982;7.032;2023-03-01T01:24:35;6.93;;;5.13;;
68176;SDS011;56478;50.982;7.032;2023-03-01T01:27:01;7.50;;;5.05;;
68176;SDS011;56478;50.982;7.032;2023-03-01T01:29:27;7.20;;;4.95;;
68176;SDS011;56478;50.982;7.032;2023-03-01T01:31:53;5.80;;;4.70;;
68176;SDS011;56478;50.982;7.032;2023-03-01T01:34:19;6.80;;;5.22;;
68176;SDS011;56478;50.982;7.032;2023-03-01T01:36:49;6.60;;;5.07;;
68176;SDS011;56478;50.982;7.032;2023-03-01T01:39:18;5.65;;;5.00;;
68176;SDS011;56478;50.982;7.032;2023-03-01T01:41:44;6.53;;;5.22;;
68176;SDS011;56478;50.982;7.032;2023-03-01T01:46:38;7.05;;;4.68;;
68176;SDS011;56478;50.982;7.032;2023-03-01T01:49:17;6.65;;;4.95;;
68176;SDS011;56478;50.982;7.032;2023-03-01T01:51:49;7.00;;;5.22;;
68176;SDS011;56478;50.982;7.032;2023-03-01T01:54:25;6.00;;;5.00;;
68176;SDS011;56478;50.982;7.032;2023-03-01T01:57:07;10.30;;;5.00;;
68176;SDS011;56478;50.982;7.032;2023-03-01T01:59:36;5.95;;;4.65;;
68176;SDS011;56478;50.982;7.032;2023-03-01T02:02:03;7.20;;;5.00;;
68176;SDS011;56478;50.982;7.032;2023-03-01T02:04:30;9.77;;;5.50;;
68176;SDS011;56478;50.982;7.032;2023-03-01T02:07:05;6.32;;;4.68;;
68176;SDS011;56478;50.982;7.032;2023-03-01T02:09:38;7.05;;;5.10;;
68176;SDS011;56478;50.982;7.032;2023-03-01T02:12:04;9.32;;;4.93;;
68176;SDS011;56478;50.982;7.032;2023-03-01T02:14:30;7.22;;;5.22;;
68176;SDS011;56478;50.982;7.032;2023-03-01T02:16:56;7.28;;;5.43;;
68176;SDS011;56478;50.982;7.032;2023-03-01T02:19:28;6.22;;;5.00;;
68176;SDS011;56478;50.982;7.032;2023-03-01T02:28:43;11.02;;;5.60;;
68176;SDS011;56478;50.982;7.032;2023-03-01T02:30:41;7.93;;;5.40;;
68176;SDS011;56478;50.982;7.032;2023-03-01T02:33:27;6.78;;;5.07;;
68176;SDS011;56478;50.982;7.032;2023-03-01T02:35:54;7.80;;;5.28;;
68176;SDS011;56478;50.982;7.032;2023-03-01T02:38:20;9.25;;;5.63;;
68176;SDS011;56478;50.982;7.032;2023-03-01T02:40:48;7.43;;;5.38;;
68176;SDS011;56478;50.982;7.032;2023-03-01T02:43:15;9.93;;;5.80;;
68176;SDS011;56478;50.982;7.032;2023-03-01T02:45:43;8.50;;;5.38;;
68176;SDS011;56478;50.982;7.032;2023-03-01T02:48:17;8.35;;;5.57;;
68176;SDS011;56478;50.982;7.032;2023-03-01T02:53:41;8.75;;;5.40;;
68176;SDS011;56478;50.982;7.032;2023-03-01T02:56:24;8.35;;;5.57;;
68176;SDS011;56478;50.982;7.032;2023-03-01T02:58:51;8.43;;;5.63;;
68176;SDS011;56478;50.982;7.032;2023-03-01T03:01:18;6.93;;;5.50;;
68176;SDS011;56478;50.982;7.032;2023-03-01T03:03:44;7.70;;;5.35;;
68176;SDS011;56478;50.982;7.032;2023-03-01T03:06:10;8.23;;;5.13;;
68176;SDS011;56478;50.982;7.032;2023-03-01T03:08:35;6.90;;;5.22;;
68176;SDS011;56478;50.982;7.032;2023-03-01T03:11:01;7.55;;;5.22;;
68176;SDS011;56478;50.982;7.032;2023-03-01T03:13:27;7.32;;;5.30;;
68176;SDS011;56478;50.982;7.032;2023-03-01T03:15:56;9.02;;;5.05;;
68176;SDS011;56478;50.982;7.032;2023-03-01T03:18:22;6.95;;;5.38;;
68176;SDS011;56478;50.982;7.032;2023-03-01T03:20:51;10.50;;;5.50;;
68176;SDS011;56478;50.982;7.032;2023-03-01T03:23:18;7.93;;;5.25;;
68176;SDS011;56478;50.982;7.032;2023-03-01T03:25:47;8.60;;;5.57;;
68176;SDS011;56478;50.982;7.032;2023-03-01T03:30:41;7.05;;;4.80;;
68176;SDS011;56478;50.982;7.032;2023-03-01T03:33:11;7.10;;;5.05;;
68176;SDS011;56478;50.982;7.032;2023-03-01T03:35:38;8.93;;;5.07;;
68176;SDS011;56478;50.982;7.032;2023-03-01T03:38:07;9.10;;;5.50;;
68176;SDS011;56478;50.982;7.032;2023-03-01T03:40:41;8.00;;;5.25;;
68176;SDS011;56478;50.982;7.032;2023-03-01T03:43:18;6.53;;;5.15;;
68176;SDS011;56478;50.982;7.032;2023-03-01T03:45:46;7.88;;;5.15;;
68176;SDS011;56478;50.982;7.032;2023-03-01T03:48:14;7.60;;;5.53;;
68176;SDS011;56478;50.982;7.032;2023-03-01T03:50:40;6.88;;;5.15;;
68176;SDS011;56478;50.982;7.032;2023-03-01T03:53:10;8.73;;;5.35;;
68176;SDS011;56478;50.982;7.032;2023-03-01T03:55:37;7.72;;;5.60;;
68176;SDS011;56478;50.982;7.032;2023-03-01T03:58:04;5.95;;;5.32;;
68176;SDS011;56478;50.982;7.032;2023-03-01T04:00:40;6.15;;;5.25;;
68176;SDS011;56478;50.982;7.032;2023-03-01T04:03:07;8.30;;;5.65;;
68176;SDS011;56478;50.982;7.032;2023-03-01T04:05:33;10.13;;;5.93;;
68176;SDS011;56478;50.982;7.032;2023-03-01T04:08:00;7.25;;;5.78;;
68176;SDS011;56478;50.982;7.032;2023-03-01T04:10:29;8.80;;;6.40;;
68176;SDS011;56478;50.982;7.032;2023-03-01T04:12:56;5.97;;;5.13;;
68176;SDS011;56478;50.982;7.032;2023-03-01T04:15:22;9.65;;;5.88;;
68176;SDS011;56478;50.982;7.032;2023-03-01T04:17:49;8.35;;;5.70;;
68176;SDS011;56478;50.982;7.032;2023-03-01T04:20:18;16.50;;;6.47;;
68176;SDS011;56478;50.982;7.032;2023-03-01T04:22:52;8.75;;;5.93;;
68176;SDS011;56478;50.982;7.032;2023-03-01T04:25:22;6.47;;;5.70;;
68176;SDS011;56478;50.982;7.032;2023-03-01T04:27:48;8.77;;;6.18;;
68176;SDS011;56478;50.982;7.032;2023-03-01T04:30:14;10.65;;;5.85;;
68176;SDS011;56478;50.982;7.032;2023-03-01T04:32:39;9.73;;;6.28;;
68176;SDS011;56478;50.982;7.032;2023-03-01T04:35:05;11.98;;;6.32;;
68176;SDS011;56478;50.982;7.032;2023-03-01T04:37:31;10.55;;;6.15;;
68176;SDS011;56478;50.982;7.032;2023-03-01T04:39:57;9.23;;;6.55;;
68176;SDS011;56478;50.982;7.032;2023-03-01T04:42:23;8.70;;;6.00;;
68176;SDS011;56478;50.982;7.032;2023-03-01T04:44:48;8.48;;;6.40;;
68176;SDS011;56478;50.982;7.032;2023-03-01T04:47:16;7.60;;;5.70;;
68176;SDS011;56478;50.982;7.032;2023-03-01T04:49:41;9.15;;;5.97;;
68176;SDS011;56478;50.982;7.032;2023-03-01T04:52:07;8.70;;;6.05;;
68176;SDS011;56478;50.982;7.032;2023-03-01T04:54:34;7.25;;;5.68;;
68176;SDS011;56478;50.982;7.032;2023-03-01T04:57:01;11.05;;;6.13;;
68176;SDS011;56478;50.982;7.032;2023-03-01T04:59:27;8.40;;;6.20;;
68176;SDS011;56478;50.982;7.032;2023-03-01T05:01:54;9.10;;;6.13;;
68176;SDS011;56478;50.982;7.032;2023-03-01T05:04:21;9.13;;;6.35;;
68176;SDS011;56478;50.982;7.032;2023-03-01T05:06:48;9.20;;;6.43;;
68176;SDS011;56478;50.982;7.032;2023-03-01T05:09:14;10.45;;;6.10;;
68176;SDS011;56478;50.982;7.032;2023-03-01T05:11:40;8.27;;;6.22;;
68176;SDS011;56478;50.982;7.032;2023-03-01T05:14:05;9.98;;;5.95;;
68176;SDS011;56478;50.982;7.032;2023-03-01T05:16:32;11.98;;;6.55;;
68176;SDS011;56478;50.982;7.032;2023-03-01T05:18:58;8.70;;;6.30;;
68176;SDS011;56478;50.982;7.032;2023-03-01T05:21:24;10.20;;;6.82;;
68176;SDS011;56478;50.982;7.032;2023-03-01T05:23:50;11.35;;;6.93;;
68176;SDS011;56478;50.982;7.032;2023-03-01T05:26:17;10.85;;;6.55;;
68176;SDS011;56478;50.982;7.032;2023-03-01T05:28:47;10.00;;;6.80;;
68176;SDS011;56478;50.982;7.032;2023-03-01T05:31:13;8.70;;;6.70;;
68176;SDS011;56478;50.982;7.032;2023-03-01T05:33:39;10.15;;;6.65;;
68176;SDS011;56478;50.982;7.032;2023-03-01T05:36:06;10.13;;;6.90;;
68176;SDS011;56478;50.982;7.032;2023-03-01T05:38:34;10.95;;;6.97;;
68176;SDS011;56478;50.982;7.032;2023-03-01T05:41:00;11.98;;;6.40;;
68176;SDS011;56478;50.982;7.032;2023-03-01T05:43:29;11.77;;;6.97;;
68176;SDS011;56478;50.982;7.032;2023-03-01T05:45:58;10.00;;;6.53;;
68176;SDS011;56478;50.982;7.032;2023-03-01T05:48:25;11.25;;;6.45;;
68176;SDS011;56478;50.982;7.032;2023-03-01T05:50:51;10.00;;;6.30;;
68176;SDS011;56478;50.982;7.032;2023-03-01T05:53:17;10.80;;;5.97;;
68176;SDS011;56478;50.982;7.032;2023-03-01T05:55:46;9.95;;;6.75;;
68176;SDS011;56478;50.982;7.032;2023-03-01T05:58:13;8.95;;;6.70;;
68176;SDS011;56478;50.982;7.032;2023-03-01T06:00:41;9.70;;;6.75;;
68176;SDS011;56478;50.982;7.032;2023-03-01T06:03:09;9.77;;;6.68;;
68176;SDS011;56478;50.982;7.032;2023-03-01T06:05:36;9.93;;;6.93;;
68176;SDS011;56478;50.982;7.032;2023-03-01T06:08:02;12.77;;;6.43;;
68176;SDS011;56478;50.982;7.032;2023-03-01T06:10:28;9.55;;;6.80;;
68176;SDS011;56478;50.982;7.032;2023-03-01T06:12:54;9.73;;;6.97;;
68176;SDS011;56478;50.982;7.032;2023-03-01T06:15:20;14.10;;;6.50;;
68176;SDS011;56478;50.982;7.032;2023-03-01T06:17:46;13.75;;;7.00;;
68176;SDS011;56478;50.982;7.032;2023-03-01T06:20:19;9.68;;;6.78;;
68176;SDS011;56478;50.982;7.032;2023-03-01T06:22:47;12.35;;;7.18;;
68176;SDS011;56478;50.982;7.032;2023-03-01T06:25:15;15.30;;;7.07;;
68176;SDS011;56478;50.982;7.032;2023-03-01T06:27:42;10.13;;;6.60;;
68176;SDS011;56478;50.982;7.032;2023-03-01T06:30:09;12.00;;;7.45;;
68176;SDS011;56478;50.982;7.032;2023-03-01T06:32:36;10.23;;;6.85;;
68176;SDS011;56478;50.982;7.032;2023-03-01T06:35:03;12.55;;;7.20;;
68176;SDS011;56478;50.982;7.032;2023-03-01T06:37:29;13.00;;;7.28;;
68176;SDS011;56478;50.982;7.032;2023-03-01T06:39:55;8.73;;;6.60;;
68176;SDS011;56478;50.982;7.032;2023-03-01T06:42:20;14.18;;;7.30;;
68176;SDS011;56478;50.982;7.032;2023-03-01T06:44:46;16.73;;;7.35;;
68176;SDS011;56478;50.982;7.032;2023-03-01T06:47:12;10.43;;;6.93;;
68176;SDS011;56478;50.982;7.032;2023-03-01T06:49:37;11.90;;;7.57;;
68176;SDS011;56478;50.982;7.032;2023-03-01T06:52:03;10.55;;;7.38;;
68176;SDS011;56478;50.982;7.032;2023-03-01T06:54:29;11.95;;;7.82;;
68176;SDS011;56478;50.982;7.032;2023-03-01T06:56:54;12.52;;;7.30;;
68176;SDS011;56478;50.982;7.032;2023-03-01T06:59:20;10.93;;;7.70;;
68176;SDS011;56478;50.982;7.032;2023-03-01T07:01:46;13.60;;;7.28;;
68176;SDS011;56478;50.982;7.032;2023-03-01T07:04:12;10.90;;;7.45;;
68176;SDS011;56478;50.982;7.032;2023-03-01T07:06:38;13.88;;;8.10;;
68176;SDS011;56478;50.982;7.032;2023-03-01T07:09:04;14.38;;;8.30;;
68176;SDS011;56478;50.982;7.032;2023-03-01T07:11:30;13.63;;;7.75;;
68176;SDS011;56478;50.982;7.032;2023-03-01T07:13:55;13.85;;;7.72;;
68176;SDS011;56478;50.982;7.032;2023-03-01T07:16:21;14.77;;;8.50;;
68176;SDS011;56478;50.982;7.032;2023-03-01T07:18:47;19.50;;;8.30;;
68176;SDS011;56478;50.982;7.032;2023-03-01T07:21:13;14.98;;;8.38;;
68176;SDS011;56478;50.982;7.032;2023-03-01T07:23:39;12.60;;;8.18;;
68176;SDS011;56478;50.982;7.032;2023-03-01T07:26:06;13.02;;;7.93;;
68176;SDS011;56478;50.982;7.032;2023-03-01T07:28:31;10.70;;;7.70;;
68176;SDS011;56478;50.982;7.032;2023-03-01T07:31:04;14.07;;;8.93;;
68176;SDS011;56478;50.982;7.032;2023-03-01T07:33:30;13.75;;;9.05;;
68176;SDS011;56478;50.982;7.032;2023-03-01T07:35:58;13.75;;;9.18;;
68176;SDS011;56478;50.982;7.032;2023-03-01T07:38:27;17.60;;;8.75;;
68176;SDS011;56478;50.982;7.032;2023-03-01T07:40:57;13.95;;;8.75;;
68176;SDS011;56478;50.982;7.032;2023-03-01T07:43:24;12.45;;;8.38;;
68176;SDS011;56478;50.982;7.032;2023-03-01T07:45:49;13.48;;;9.30;;
68176;SDS011;56478;50.982;7.032;2023-03-01T07:48:15;12.68;;;9.10;;
68176;SDS011;56478;50.982;7.032;2023-03-01T07:50:40;15.02;;;9.18;;
68176;SDS011;56478;50.982;7.032;2023-03-01T07:53:06;14.18;;;9.18;;
68176;SDS011;56478;50.982;7.032;2023-03-01T07:55:31;13.07;;;8.55;;
68176;SDS011;56478;50.982;7.032;2023-03-01T07:57:57;11.00;;;8.70;;
68176;SDS011;56478;50.982;7.032;2023-03-01T08:00:22;11.60;;;8.70;;
68176;SDS011;56478;50.982;7.032;2023-03-01T08:02:48;9.95;;;8.48;;
68176;SDS011;56478;50.982;7.032;2023-03-01T08:05:13;12.60;;;8.85;;
68176;SDS011;56478;50.982;7.032;2023-03-01T08:07:39;10.20;;;8.80;;
68176;SDS011;56478;50.982;7.032;2023-03-01T08:10:05;12.32;;;8.75;;
68176;SDS011;56478;50.982;7.032;2023-03-01T08:12:31;11.07;;;9.00;;
68176;SDS011;56478;50.982;7.032;2023-03-01T08:14:56;10.40;;;8.98;;
68176;SDS011;56478;50.982;7.032;2023-03-01T08:17:22;12.30;;;8.82;;
68176;SDS011;56478;50.982;7.032;2023-03-01T08:19:47;16.05;;;9.25;;
68176;SDS011;56478;50.982;7.032;2023-03-01T08:22:13;9.93;;;8.18;;
68176;SDS011;56478;50.982;7.032;2023-03-01T08:24:39;11.10;;;8.52;;
68176;SDS011;56478;50.982;7.032;2023-03-01T08:27:04;9.77;;;8.43;;
68176;SDS011;56478;50.982;7.032;2023-03-01T08:29:31;11.48;;;8.23;;
68176;SDS011;56478;50.982;7.032;2023-03-01T08:31:57;13.38;;;8.60;;
68176;SDS011;56478;50.982;7.032;2023-03-01T08:34:22;10.43;;;8.60;;
68176;SDS011;56478;50.982;7.032;2023-03-01T08:36:48;9.10;;;7.75;;
68176;SDS011;56478;50.982;7.032;2023-03-01T08:39:15;10.93;;;7.90;;
68176;SDS011;56478;50.982;7.032;2023-03-01T08:41:43;8.32;;;7.55;;
68176;SDS011;56478;50.982;7.032;2023-03-01T08:44:09;8.30;;;7.40;;
68176;SDS011;56478;50.982;7.032;2023-03-01T08:46:37;10.77;;;7.83;;
68176;SDS011;56478;50.982;7.032;2023-03-01T08:49:10;8.75;;;7.78;;
68176;SDS011;56478;50.982;7.032;2023-03-01T08:51:37;9.10;;;7.32;;
68176;SDS011;56478;50.982;7.032;2023-03-01T08:54:04;8.80;;;7.70;;
68176;SDS011;56478;50.982;7.032;2023-03-01T08:56:31;9.32;;;7.85;;
68176;SDS011;56478;50.982;7.032;2023-03-01T08:58:56;9.85;;;7.47;;
68176;SDS011;56478;50.982;7.032;2023-03-01T09:01:22;11.15;;;7.55;;
68176;SDS011;56478;50.982;7.032;2023-03-01T09:03:48;10.32;;;7.63;;
68176;SDS011;56478;50.982;7.032;2023-03-01T09:06:14;11.82;;;7.70;;
68176;SDS011;56478;50.982;7.032;2023-03-01T09:08:40;7.97;;;7.18;;
68176;SDS011;56478;50.982;7.032;2023-03-01T09:11:08;10.23;;;7.40;;
68176;SDS011;56478;50.982;7.032;2023-03-01T09:13:34;7.93;;;7.07;;
68176;SDS011;56478;50.982;7.032;2023-03-01T09:16:01;11.77;;;7.55;;
68176;SDS011;56478;50.982;7.032;2023-03-01T09:18:28;9.80;;;7.13;;
68176;SDS011;56478;50.982;7.032;2023-03-01T09:21:00;10.25;;;7.20;;
68176;SDS011;56478;50.982;7.032;2023-03-01T09:23:37;10.20;;;7.68;;
68176;SDS011;56478;50.982;7.032;2023-03-01T09:26:22;8.40;;;7.40;;
68176;SDS011;56478;50.982;7.032;2023-03-01T09:28:49;7.65;;;6.93;;
68176;SDS011;56478;50.982;7.032;2023-03-01T09:31:16;10.98;;;7.70;;
68176;SDS011;56478;50.982;7.032;2023-03-01T09:33:45;7.80;;;7.00;;
68176;SDS011;56478;50.982;7.032;2023-03-01T09:36:13;8.65;;;7.15;;
68176;SDS011;56478;50.982;7.032;2023-03-01T09:38:41;8.52;;;7.40;;
68176;SDS011;56478;50.982;7.032;2023-03-01T09:43:51;8.00;;;7.18;;
68176;SDS011;56478;50.982;7.032;2023-03-01T09:46:22;8.32;;;7.53;;
68176;SDS011;56478;50.982;7.032;2023-03-01T09:51:29;9.23;;;7.35;;
68176;SDS011;56478;50.982;7.032;2023-03-01T09:53:57;9.27;;;7.35;;
68176;SDS011;56478;50.982;7.032;2023-03-01T09:56:46;10.15;;;7.18;;
68176;SDS011;56478;50.982;7.032;2023-03-01T09:59:23;8.00;;;7.13;;
68176;SDS011;56478;50.982;7.032;2023-03-01T10:04:38;7.75;;;7.00;;
68176;SDS011;56478;50.982;7.032;2023-03-01T10:09:42;13.65;;;7.28;;
68176;SDS011;56478;50.982;7.032;2023-03-01T10:12:12;8.38;;;7.32;;
68176;SDS011;56478;50.982;7.032;2023-03-01T10:20:14;8.85;;;7.63;;
68176;SDS011;56478;50.982;7.032;2023-03-01T10:22:41;8.32;;;7.28;;
68176;SDS011;56478;50.982;7.032;2023-03-01T10:25:08;8.25;;;7.40;;
68176;SDS011;56478;50.982;7.032;2023-03-01T10:30:38;10.77;;;7.78;;
68176;SDS011;56478;50.982;7.032;2023-03-01T10:33:20;12.57;;;8.07;;
68176;SDS011;56478;50.982;7.032;2023-03-01T10:35:49;8.95;;;7.00;;
68176;SDS011;56478;50.982;7.032;2023-03-01T10:38:15;8.23;;;7.40;;
68176;SDS011;56478;50.982;7.032;2023-03-01T10:40:59;8.15;;;7.25;;
68176;SDS011;56478;50.982;7.032;2023-03-01T10:43:45;8.32;;;7.43;;
68176;SDS011;56478;50.982;7.032;2023-03-01T10:51:47;8.70;;;7.22;;
68176;SDS011;56478;50.982;7.032;2023-03-01T10:59:25;9.95;;;7.65;;
68176;SDS011;56478;50.982;7.032;2023-03-01T11:07:50;10.00;;;7.38;;
68176;SDS011;56478;50.982;7.032;2023-03-01T11:10:28;8.88;;;7.50;;
68176;SDS011;56478;50.982;7.032;2023-03-01T11:13:07;7.65;;;6.95;;
68176;SDS011;56478;50.982;7.032;2023-03-01T11:15:42;8.68;;;7.03;;
68176;SDS011;56478;50.982;7.032;2023-03-01T11:18:23;8.10;;;6.78;;
68176;SDS011;56478;50.982;7.032;2023-03-01T11:20:51;7.80;;;7.03;;
68176;SDS011;56478;50.982;7.032;2023-03-01T11:23:20;9.13;;;6.95;;
68176;SDS011;56478;50.982;7.032;2023-03-01T11:25:54;9.07;;;7.53;;
68176;SDS011;56478;50.982;7.032;2023-03-01T11:28:22;9.15;;;7.28;;
68176;SDS011;56478;50.982;7.032;2023-03-01T11:31:08;12.90;;;7.30;;
68176;SDS011;56478;50.982;7.032;2023-03-01T11:38:55;8.90;;;7.68;;
68176;SDS011;56478;50.982;7.032;2023-03-01T11:41:31;13.10;;;7.43;;
68176;SDS011;56478;50.982;7.032;2023-03-01T11:44:02;10.48;;;7.40;;
68176;SDS011;56478;50.982;7.032;2023-03-01T11:49:29;8.15;;;7.25;;
68176;SDS011;56478;50.982;7.032;2023-03-01T11:58:02;8.57;;;6.40;;
68176;SDS011;56478;50.982;7.032;2023-03-01T12:00:58;7.93;;;6.75;;
68176;SDS011;56478;50.982;7.032;2023-03-01T12:06:48;8.10;;;6.82;;
68176;SDS011;56478;50.982;7.032;2023-03-01T12:17:36;8.10;;;6.70;;
68176;SDS011;56478;50.982;7.032;2023-03-01T12:26:16;10.20;;;6.25;;
68176;SDS011;56478;50.982;7.032;2023-03-01T12:34:08;8.95;;;6.70;;
68176;SDS011;56478;50.982;7.032;2023-03-01T12:49:23;9.88;;;6.60;;
68176;SDS011;56478;50.982;7.032;2023-03-01T12:51:59;10.73;;;6.45;;
68176;SDS011;56478;50.982;7.032;2023-03-01T12:54:32;7.90;;;6.70;;
68176;SDS011;56478;50.982;7.032;2023-03-01T12:57:08;9.52;;;6.40;;
68176;SDS011;56478;50.982;7.032;2023-03-01T12:59:43;7.40;;;5.93;;
68176;SDS011;56478;50.982;7.032;2023-03-01T13:02:26;6.57;;;5.70;;
68176;SDS011;56478;50.982;7.032;2023-03-01T13:11:20;12.25;;;6.43;;
68176;SDS011;56478;50.982;7.032;2023-03-01T13:13:47;10.95;;;6.60;;
68176;SDS011;56478;50.982;7.032;2023-03-01T13:22:38;8.15;;;5.63;;
68176;SDS011;56478;50.982;7.032;2023-03-01T13:25:19;10.77;;;6.53;;
68176;SDS011;56478;50.982;7.032;2023-03-01T13:27:46;6.55;;;5.90;;
68176;SDS011;56478;50.982;7.032;2023-03-01T13:35:59;8.07;;;6.03;;
68176;SDS011;56478;50.982;7.032;2023-03-01T13:38:39;8.18;;;5.93;;
68176;SDS011;56478;50.982;7.032;2023-03-01T13:41:11;8.80;;;6.18;;
68176;SDS011;56478;50.982;7.032;2023-03-01T13:43:40;7.35;;;6.40;;
68176;SDS011;56478;50.982;7.032;2023-03-01T13:46:09;12.40;;;5.90;;
68176;SDS011;56478;50.982;7.032;2023-03-01T13:49:01;8.32;;;6.43;;
68176;SDS011;56478;50.982;7.032;2023-03-01T13:51:27;11.13;;;6.00;;
68176;SDS011;56478;50.982;7.032;2023-03-01T13:53:54;7.32;;;5.82;;
68176;SDS011;56478;50.982;7.032;2023-03-01T13:56:24;10.30;;;5.73;;
68176;SDS011;56478;50.982;7.032;2023-03-01T14:01:27;6.38;;;5.75;;
68176;SDS011;56478;50.982;7.032;2023-03-01T14:03:58;8.65;;;6.00;;
68176;SDS011;56478;50.982;7.032;2023-03-01T14:06:25;7.55;;;5.43;;
68176;SDS011;56478;50.982;7.032;2023-03-01T14:09:40;10.55;;;5.55;;
68176;SDS011;56478;50.982;7.032;2023-03-01T14:20:03;10.32;;;5.90;;
68176;SDS011;56478;50.982;7.032;2023-03-01T14:22:37;7.55;;;6.00;;
68176;SDS011;56478;50.982;7.032;2023-03-01T14:27:44;11.27;;;5.90;;
68176;SDS011;56478;50.982;7.032;2023-03-01T14:30:20;9.50;;;6.05;;
68176;SDS011;56478;50.982;7.032;2023-03-01T14:32:56;8.77;;;5.90;;
68176;SDS011;56478;50.982;7.032;2023-03-01T14:35:24;7.47;;;6.00;;
68176;SDS011;56478;50.982;7.032;2023-03-01T14:37:52;8.93;;;6.13;;
68176;SDS011;56478;50.982;7.032;2023-03-01T14:40:26;10.82;;;6.03;;
68176;SDS011;56478;50.982;7.032;2023-03-01T14:42:53;7.57;;;5.88;;
68176;SDS011;56478;50.982;7.032;2023-03-01T14:45:20;7.00;;;6.03;;
68176;SDS011;56478;50.982;7.032;2023-03-01T14:47:46;8.40;;;6.30;;
68176;SDS011;56478;50.982;7.032;2023-03-01T14:50:19;9.40;;;5.97;;
68176;SDS011;56478;50.982;7.032;2023-03-01T14:52:49;7.93;;;6.20;;
68176;SDS011;56478;50.982;7.032;2023-03-01T14:55:18;8.50;;;5.80;;
68176;SDS011;56478;50.982;7.032;2023-03-01T14:57:49;5.53;;;4.97;;
68176;SDS011;56478;50.982;7.032;2023-03-01T15:00:20;9.52;;;6.18;;
68176;SDS011;56478;50.982;7.032;2023-03-01T15:02:50;7.60;;;5.60;;
68176;SDS011;56478;50.982;7.032;2023-03-01T15:05:19;8.55;;;5.97;;
68176;SDS011;56478;50.982;7.032;2023-03-01T15:07:52;7.05;;;5.65;;
68176;SDS011;56478;50.982;7.032;2023-03-01T15:10:21;8.35;;;5.90;;
68176;SDS011;56478;50.982;7.032;2023-03-01T15:12:48;7.05;;;5.72;;
68176;SDS011;56478;50.982;7.032;2023-03-01T15:15:34;8.98;;;6.15;;
68176;SDS011;56478;50.982;7.032;2023-03-01T15:20:46;6.97;;;5.82;;
68176;SDS011;56478;50.982;7.032;2023-03-01T15:23:26;7.60;;;5.80;;
68176;SDS011;56478;50.982;7.032;2023-03-01T15:25:53;8.95;;;5.32;;
68176;SDS011;56478;50.982;7.032;2023-03-01T15:28:24;9.18;;;6.22;;
68176;SDS011;56478;50.982;7.032;2023-03-01T15:30:56;9.30;;;6.07;;
68176;SDS011;56478;50.982;7.032;2023-03-01T15:35:54;11.38;;;5.43;;
68176;SDS011;56478;50.982;7.032;2023-03-01T15:38:34;10.15;;;6.03;;
68176;SDS011;56478;50.982;7.032;2023-03-01T15:41:23;9.40;;;5.72;;
68176;SDS011;56478;50.982;7.032;2023-03-01T15:43:49;12.65;;;6.15;;
68176;SDS011;56478;50.982;7.032;2023-03-01T15:46:16;7.18;;;5.80;;
68176;SDS011;56478;50.982;7.032;2023-03-01T15:48:46;8.77;;;5.78;;
68176;SDS011;56478;50.982;7.032;2023-03-01T15:51:17;10.38;;;5.53;;
68176;SDS011;56478;50.982;7.032;2023-03-01T15:53:52;9.88;;;5.90;;
68176;SDS011;56478;50.982;7.032;2023-03-01T15:56:18;8.27;;;5.90;;
68176;SDS011;56478;50.982;7.032;2023-03-01T15:58:44;11.00;;;6.13;;
68176;SDS011;56478;50.982;7.032;2023-03-01T16:01:13;6.13;;;5.45;;
68176;SDS011;56478;50.982;7.032;2023-03-01T16:03:40;8.18;;;5.38;;
68176;SDS011;56478;50.982;7.032;2023-03-01T16:06:08;8.02;;;5.78;;
68176;SDS011;56478;50.982;7.032;2023-03-01T16:08:35;7.47;;;5.57;;
68176;SDS011;56478;50.982;7.032;2023-03-01T16:11:00;7.72;;;5.30;;
68176;SDS011;56478;50.982;7.032;2023-03-01T16:13:30;8.48;;;5.30;;
68176;SDS011;56478;50.982;7.032;2023-03-01T16:15:56;7.45;;;5.70;;
68176;SDS011;56478;50.982;7.032;2023-03-01T16:18:22;7.18;;;5.28;;
68176;SDS011;56478;50.982;7.032;2023-03-01T16:20:48;8.27;;;5.22;;
68176;SDS011;56478;50.982;7.032;2023-03-01T16:23:14;8.98;;;5.80;;
68176;SDS011;56478;50.982;7.032;2023-03-01T16:25:40;7.35;;;5.40;;
68176;SDS011;56478;50.982;7.032;2023-03-01T16:28:06;6.60;;;5.88;;
68176;SDS011;56478;50.982;7.032;2023-03-01T16:30:35;7.07;;;5.25;;
68176;SDS011;56478;50.982;7.032;2023-03-01T16:33:02;6.60;;;5.35;;
68176;SDS011;56478;50.982;7.032;2023-03-01T16:35:31;7.47;;;5.50;;
68176;SDS011;56478;50.982;7.032;2023-03-01T16:37:58;8.15;;;5.78;;
68176;SDS011;56478;50.982;7.032;2023-03-01T16:40:26;10.40;;;5.55;;
68176;SDS011;56478;50.982;7.032;2023-03-01T16:42:54;8.90;;;5.03;;
68176;SDS011;56478;50.982;7.032;2023-03-01T16:45:24;11.25;;;5.78;;
68176;SDS011;56478;50.982;7.032;2023-03-01T16:47:51;9.70;;;5.60;;
68176;SDS011;56478;50.982;7.032;2023-03-01T16:50:17;7.38;;;5.53;;
68176;SDS011;56478;50.982;7.032;2023-03-01T16:52:43;8.35;;;5.82;;
68176;SDS011;56478;50.982;7.032;2023-03-01T16:55:08;9.00;;;5.95;;
68176;SDS011;56478;50.982;7.032;2023-03-01T16:57:35;7.15;;;5.18;;
68176;SDS011;56478;50.982;7.032;2023-03-01T17:00:03;7.63;;;5.45;;
68176;SDS011;56478;50.982;7.032;2023-03-01T17:02:32;6.43;;;5.28;;
68176;SDS011;56478;50.982;7.032;2023-03-01T17:04:59;8.90;;;5.65;;
68176;SDS011;56478;50.982;7.032;2023-03-01T17:07:24;6.90;;;5.10;;
68176;SDS011;56478;50.982;7.032;2023-03-01T17:09:50;11.00;;;5.78;;